createdAt,value
2019-04-14T07:21:30.940Z,61.94
2019-04-14T07:24:06.557Z,61.49
2019-04-14T07:26:43.286Z,61.49
2019-04-14T07:29:16.744Z,61.75
2019-04-14T07:32:14.141Z,61.36
2019-04-14T07:35:05.969Z,61.19
2019-04-14T07:37:54.674Z,61.31
2019-04-14T07:40:52.323Z,61.36
2019-04-14T07:43:50.222Z,61.68
2019-04-14T07:46:49.334Z,61.32
2019-04-14T07:49:57.740Z,61.06
2019-04-14T07:52:57.331Z,61.30
2019-04-14T07:55:38.881Z,61.29
2019-04-14T07:58:25.037Z,60.92
2019-04-14T08:01:06.858Z,61.74
2019-04-14T08:03:58.960Z,61.28
2019-04-14T08:06:33.191Z,61.49
2019-04-14T08:09:08.642Z,60.83
2019-04-14T08:11:41.811Z,61.35
2019-04-14T08:14:17.358Z,61.24
2019-04-14T08:16:54.128Z,61.23
2019-04-14T08:19:27.740Z,61.65
2019-04-14T08:22:06.905Z,61.71
2019-04-14T08:24:40.190Z,60.93
2019-04-14T08:27:16.382Z,62.95
2019-04-14T08:29:50.696Z,61.65
2019-04-14T08:32:23.930Z,60.71
2019-04-14T08:34:57.241Z,60.09
2019-04-14T08:37:30.466Z,60.01
2019-04-14T08:40:03.728Z,59.47
2019-04-14T08:43:03.241Z,59.27
2019-04-14T08:45:46.265Z,59.51
2019-04-14T08:48:31.869Z,59.08
2019-04-14T08:51:17.471Z,58.57
2019-04-14T08:54:04.169Z,59.17
2019-04-14T08:57:11.194Z,58.96
2019-04-14T09:00:06.843Z,59.44
2019-04-14T09:02:55.480Z,57.77
2019-04-14T09:05:48.613Z,55.46
2019-04-14T09:08:29.487Z,55.53
2019-04-14T09:11:10.981Z,55.42
2019-04-14T09:13:44.455Z,52.26
2019-04-14T09:16:19.032Z,50.63
2019-04-14T09:19:07.120Z,51.49
2019-04-14T09:21:31.541Z,49.17
2019-04-14T09:24:06.902Z,49.68
2019-04-14T09:26:48.287Z,50.60
2019-04-14T09:29:23.599Z,48.20
2019-04-14T09:31:57.231Z,48.18
2019-04-14T09:34:31.964Z,48.04
2019-04-14T09:37:15.146Z,46.72
2019-04-14T09:39:48.412Z,47.20
2019-04-14T09:42:24.980Z,46.76
2019-04-14T09:44:58.233Z,45.43
2019-04-14T09:47:31.589Z,45.29
2019-04-14T09:50:06.815Z,42.80
2019-04-14T09:52:40.033Z,41.62
2019-04-14T09:55:15.063Z,42.15
2019-04-14T09:57:48.295Z,41.91
2019-04-14T10:00:39.863Z,40.76
2019-04-14T10:03:17.271Z,44.05
2019-04-14T10:05:53.395Z,38.45
2019-04-14T10:08:27.029Z,39.73
2019-04-14T10:11:00.127Z,38.49
2019-04-14T10:13:33.518Z,38.00
2019-04-14T10:16:06.726Z,39.04
2019-04-14T10:18:39.804Z,39.08
2019-04-14T10:21:17.698Z,39.75
2019-04-14T10:23:48.755Z,39.89
2019-04-14T10:26:22.421Z,39.20
2019-04-14T10:28:55.577Z,39.55
2019-04-14T10:31:29.847Z,40.62
2019-04-14T10:34:03.620Z,39.68
2019-04-14T10:36:36.870Z,39.41
2019-04-14T10:39:13.258Z,38.50
2019-04-14T10:41:54.136Z,39.10
2019-04-14T10:44:27.530Z,38.73
2019-04-14T10:47:00.736Z,39.69
2019-04-14T10:49:34.013Z,37.72
2019-04-14T10:52:11.000Z,33.54
2019-04-14T10:54:47.839Z,35.15
2019-04-14T10:57:22.574Z,34.06
2019-04-14T11:00:00.983Z,35.86
2019-04-14T11:02:42.768Z,33.43
2019-04-14T11:05:17.486Z,34.22
2019-04-14T11:08:02.029Z,32.09
2019-04-14T11:10:42.198Z,33.22
2019-04-14T11:13:18.033Z,32.05
2019-04-14T11:15:52.425Z,31.25
2019-04-14T11:18:28.965Z,31.89
2019-04-14T11:21:07.472Z,31.27
2019-04-14T11:23:42.667Z,32.23
2019-04-14T11:26:20.560Z,32.03
2019-04-14T11:28:56.741Z,32.65
2019-04-14T11:32:03.683Z,32.77
2019-04-14T11:34:55.613Z,32.31
2019-04-14T11:37:43.874Z,33.72
2019-04-14T11:40:19.537Z,30.90
2019-04-14T11:42:57.648Z,31.87
2019-04-14T11:45:34.115Z,30.84
2019-04-14T11:48:07.390Z,31.24
2019-04-14T11:50:43.673Z,30.51
2019-04-14T11:53:19.325Z,31.20
2019-04-14T11:55:52.630Z,31.06
2019-04-14T11:58:29.142Z,31.07
2019-04-14T12:01:31.120Z,31.50
2019-04-14T12:04:23.954Z,30.49
2019-04-14T12:07:30.242Z,30.93
2019-04-14T12:10:17.331Z,29.41
2019-04-14T12:12:51.284Z,29.37
2019-04-14T12:15:25.658Z,29.17
2019-04-14T12:17:59.303Z,29.64
2019-04-14T12:20:33.278Z,29.46
2019-04-14T12:23:12.458Z,28.44
2019-04-14T12:25:46.457Z,28.67
2019-04-14T12:28:21.857Z,27.55
2019-04-14T12:30:55.471Z,28.04
2019-04-14T12:33:28.580Z,28.33
2019-04-14T12:36:01.729Z,29.02
2019-04-14T12:38:34.862Z,29.51
2019-04-14T12:41:10.536Z,29.08
2019-04-14T12:44:11.807Z,30.49
2019-04-14T12:47:03.161Z,31.42
2019-04-14T12:49:40.265Z,29.73
2019-04-14T12:52:21.537Z,29.75
2019-04-14T12:54:59.090Z,29.85
2019-04-14T12:57:39.967Z,29.50
2019-04-14T13:00:20.342Z,29.21
2019-04-14T13:02:53.634Z,29.37
2019-04-14T13:05:26.691Z,29.69
2019-04-14T13:07:59.781Z,29.08
2019-04-14T13:10:32.907Z,28.14
2019-04-14T13:13:06.144Z,29.15
2019-04-14T13:15:39.406Z,28.25
2019-04-14T13:18:15.376Z,28.71
2019-04-14T13:20:48.558Z,28.89
2019-04-14T13:23:21.700Z,28.49
2019-04-14T13:25:55.288Z,29.47
2019-04-14T13:28:28.480Z,28.38
2019-04-14T13:31:01.606Z,29.02
2019-04-14T13:33:35.543Z,27.16
2019-04-14T13:36:08.597Z,27.86
2019-04-14T13:38:41.649Z,27.47
2019-04-14T13:41:14.729Z,27.95
2019-04-14T13:43:47.763Z,28.25
2019-04-14T13:46:21.567Z,27.87
2019-04-14T13:48:55.493Z,28.03
2019-04-14T13:51:28.602Z,27.57
2019-04-14T13:54:06.761Z,27.36
2019-04-14T13:56:40.897Z,27.19
2019-04-14T13:59:15.296Z,27.25
2019-04-14T14:01:48.416Z,26.25
2019-04-14T14:04:22.955Z,27.16
2019-04-14T14:07:05.628Z,26.74
2019-04-14T14:09:41.603Z,25.99
2019-04-14T14:12:37.164Z,26.48
2019-04-14T14:15:34.666Z,27.07
2019-04-14T14:18:22.700Z,26.93
2019-04-14T14:21:18.381Z,26.94
2019-04-14T14:24:10.158Z,26.60
2019-04-14T14:26:43.916Z,27.17
2019-04-14T14:29:23.339Z,27.21
2019-04-14T14:31:57.415Z,26.92
2019-04-14T14:34:39.778Z,26.76
2019-04-14T14:37:12.902Z,27.67
2019-04-14T14:39:46.584Z,27.49
2019-04-14T14:42:22.222Z,26.92
2019-04-14T14:45:38.183Z,25.90
2019-04-14T14:48:26.870Z,27.58
2019-04-14T14:51:29.364Z,27.06
2019-04-14T14:54:02.401Z,26.06
2019-04-14T14:56:35.985Z,26.40
2019-04-14T14:59:10.378Z,26.37
2019-04-14T15:01:46.470Z,26.46
2019-04-14T15:04:20.080Z,26.74
2019-04-14T15:06:53.357Z,26.09
2019-04-14T15:09:30.866Z,26.38
2019-04-14T15:12:05.868Z,26.50
2019-04-14T15:15:17.262Z,26.07
2019-04-14T15:17:52.254Z,27.21
2019-04-14T15:20:26.510Z,26.99
2019-04-14T15:23:01.408Z,26.20
2019-04-14T15:25:37.299Z,27.33
2019-04-14T15:28:12.306Z,25.92
2019-04-14T15:30:45.605Z,26.78
2019-04-14T15:33:18.903Z,26.93
2019-04-14T15:35:52.217Z,27.66
2019-04-14T15:38:26.906Z,27.54
2019-04-14T15:41:01.264Z,26.87
2019-04-14T15:43:36.870Z,27.16
2019-04-14T15:46:10.634Z,27.76
2019-04-14T15:48:44.010Z,27.93
2019-04-14T15:51:17.352Z,27.73
2019-04-14T15:53:50.711Z,27.61
2019-04-14T15:56:48.688Z,26.81
2019-04-14T15:59:41.699Z,26.71
2019-04-14T16:02:41.509Z,26.65
2019-04-14T16:05:29.107Z,26.00
2019-04-14T16:08:21.114Z,26.37
2019-04-14T16:10:59.784Z,26.97
2019-04-14T16:13:54.810Z,26.46
2019-04-14T16:16:50.387Z,26.81
2019-04-14T16:19:47.127Z,26.96
2019-04-14T16:22:24.382Z,27.30
2019-04-14T16:24:57.675Z,26.61
2019-04-14T16:27:49.611Z,26.40
2019-04-14T16:30:35.184Z,26.54
2019-04-14T16:33:24.637Z,27.32
2019-04-14T16:35:59.922Z,28.10
2019-04-14T16:38:35.181Z,27.90
2019-04-14T16:41:12.798Z,27.72
2019-04-14T16:43:46.160Z,27.36
2019-04-14T16:46:20.507Z,27.47
2019-04-14T16:48:57.096Z,27.19
2019-04-14T16:51:35.001Z,27.35
2019-04-14T16:54:19.142Z,27.41
2019-04-14T16:57:06.550Z,27.01
2019-04-14T16:59:42.890Z,27.12
2019-04-14T17:02:21.734Z,27.01
2019-04-14T17:04:56.534Z,27.01
2019-04-14T17:07:31.285Z,26.63
2019-04-14T17:10:04.585Z,27.33
2019-04-14T17:13:00.823Z,26.98
2019-04-14T17:16:29.099Z,27.30
2019-04-14T17:19:57.211Z,27.77
2019-04-14T17:22:47.203Z,27.44
2019-04-14T17:25:28.046Z,27.56
2019-04-14T17:28:25.769Z,27.86
2019-04-14T17:31:08.781Z,27.88
2019-04-14T17:33:48.214Z,28.11
2019-04-14T17:36:32.478Z,28.15
2019-04-14T17:39:31.786Z,28.15
2019-04-14T17:42:26.486Z,28.31
2019-04-14T17:45:18.396Z,28.82
2019-04-14T17:48:10.395Z,29.63
2019-04-14T17:50:58.161Z,29.09
2019-04-14T17:54:00.437Z,29.35
2019-04-14T17:56:55.774Z,29.61
2019-04-14T17:59:42.841Z,29.92
2019-04-14T18:02:27.517Z,30.50
2019-04-14T18:05:12.789Z,30.59
2019-04-14T18:07:58.984Z,30.94
2019-04-14T18:10:41.877Z,31.18
2019-04-14T18:13:31.031Z,31.69
2019-04-14T18:16:22.662Z,32.25
2019-04-14T18:19:12.460Z,32.62
2019-04-14T18:21:45.673Z,32.58
2019-04-14T18:24:19.107Z,32.61
2019-04-14T18:26:52.193Z,32.79
2019-04-14T18:29:45.070Z,32.77
2019-04-14T18:32:32.186Z,32.97
2019-04-14T18:35:23.247Z,32.99
2019-04-14T18:38:26.445Z,33.28
2019-04-14T18:41:19.832Z,33.26
2019-04-14T18:44:11.774Z,33.19
2019-04-14T18:46:53.840Z,33.40
2019-04-14T18:49:48.821Z,33.53
2019-04-14T18:52:39.926Z,33.65
2019-04-14T18:55:28.074Z,34.65
2019-04-14T18:58:17.776Z,33.97
2019-04-14T19:00:56.525Z,34.22
2019-04-14T19:03:30.064Z,34.25
2019-04-14T19:06:15.168Z,34.43
2019-04-14T19:08:46.334Z,34.45
2019-04-14T19:11:37.442Z,34.88
2019-04-14T19:14:11.534Z,34.69
2019-04-14T19:16:48.065Z,34.74
2019-04-14T19:20:01.808Z,34.95
2019-04-14T19:23:02.359Z,35.14
2019-04-14T19:26:06.822Z,35.02
2019-04-14T19:28:50.065Z,35.15
2019-04-14T19:31:26.651Z,35.40
2019-04-14T19:34:00.009Z,35.42
2019-04-14T19:36:37.243Z,35.66
2019-04-14T19:39:14.537Z,35.61
2019-04-14T19:41:47.986Z,35.85
2019-04-14T19:44:21.382Z,35.73
2019-04-14T19:46:54.683Z,35.93
2019-04-14T19:49:28.072Z,36.21
2019-04-14T19:52:04.266Z,36.43
2019-04-14T19:54:42.014Z,36.52
2019-04-14T19:57:15.235Z,36.48
2019-04-14T19:59:48.475Z,36.59
2019-04-14T20:02:25.035Z,36.81
2019-04-14T20:05:00.904Z,36.87
2019-04-14T20:07:35.775Z,36.83
2019-04-14T20:10:15.788Z,37.03
2019-04-14T20:12:45.214Z,37.36
2019-04-14T20:15:30.294Z,37.41
2019-04-14T20:18:11.437Z,37.69
2019-04-14T20:21:04.811Z,38.08
2019-04-14T20:23:57.336Z,38.26
2019-04-14T20:26:56.151Z,38.80
2019-04-14T20:29:39.358Z,39.41
2019-04-14T20:32:23.712Z,40.04
2019-04-14T20:34:57.463Z,40.54
2019-04-14T20:37:32.381Z,40.83
2019-04-14T20:40:06.942Z,41.11
2019-04-14T20:42:41.775Z,41.46
2019-04-14T20:45:17.155Z,41.61
2019-04-14T20:47:54.796Z,42.14
2019-04-14T20:50:31.120Z,42.24
2019-04-14T20:53:07.878Z,42.40
2019-04-14T20:55:47.182Z,42.64
2019-04-14T20:58:19.544Z,43.01
2019-04-14T21:01:00.312Z,43.11
2019-04-14T21:03:43.824Z,43.52
2019-04-14T21:06:30.266Z,43.70
2019-04-14T21:09:30.985Z,44.13
2019-04-14T21:12:19.235Z,43.94
2019-04-14T21:15:16.351Z,44.26
2019-04-14T21:18:06.473Z,44.28
2019-04-14T21:20:55.631Z,44.55
2019-04-14T21:23:52.881Z,44.70
2019-04-14T21:26:36.208Z,44.80
2019-04-14T21:29:30.444Z,44.78
2019-04-14T21:32:22.923Z,45.02
2019-04-14T21:35:09.151Z,45.17
2019-04-14T21:37:57.981Z,45.23
2019-04-14T21:40:50.959Z,45.22
2019-04-14T21:43:22.946Z,45.25
2019-04-14T21:45:59.920Z,45.44
2019-04-14T21:48:38.161Z,45.61
2019-04-14T21:51:11.770Z,45.64
2019-04-14T21:53:46.793Z,45.88
2019-04-14T21:56:33.701Z,46.10
2019-04-14T21:59:21.663Z,46.04
2019-04-14T22:02:15.235Z,46.33
2019-04-14T22:05:13.603Z,46.59
2019-04-14T22:08:15.454Z,46.59
2019-04-14T22:10:54.801Z,47.00
2019-04-14T22:13:33.783Z,46.86
2019-04-14T22:16:08.903Z,47.38
2019-04-14T22:18:47.005Z,47.11
2019-04-14T22:21:20.945Z,47.40
2019-04-14T22:24:01.826Z,47.26
2019-04-14T22:26:37.628Z,47.50
2019-04-14T22:29:10.867Z,47.87
2019-04-14T22:31:48.989Z,47.92
2019-04-14T22:34:22.261Z,48.17
2019-04-14T22:36:55.448Z,48.27
2019-04-14T22:39:40.217Z,48.21
2019-04-14T22:42:07.576Z,48.40
2019-04-14T22:44:43.063Z,48.42
2019-04-14T22:47:20.296Z,48.63
2019-04-14T22:49:55.307Z,48.64
2019-04-14T22:52:28.534Z,48.87
2019-04-14T22:55:05.748Z,48.85
2019-04-14T22:57:39.054Z,48.91
2019-04-14T23:00:22.421Z,49.03
2019-04-14T23:03:07.813Z,49.11
2019-04-14T23:06:07.396Z,49.23
2019-04-14T23:08:45.352Z,49.48
2019-04-14T23:11:37.544Z,49.55
2019-04-14T23:14:17.760Z,49.69
2019-04-14T23:17:21.514Z,49.99
2019-04-14T23:20:23.146Z,49.97
2019-04-14T23:23:18.267Z,50.22
2019-04-14T23:26:02.540Z,50.18
2019-04-14T23:28:32.485Z,50.06
2019-04-14T23:31:05.849Z,50.33
2019-04-14T23:33:41.457Z,50.42
2019-04-14T23:36:24.676Z,50.66
2019-04-14T23:38:57.896Z,50.53
2019-04-14T23:41:31.141Z,50.78
2019-04-14T23:44:05.835Z,50.96
2019-04-14T23:46:39.000Z,51.01
2019-04-14T23:49:12.663Z,50.90
2019-04-14T23:51:45.910Z,50.96
2019-04-14T23:54:20.429Z,50.81
2019-04-14T23:57:04.695Z,51.27
2019-04-14T23:59:28.633Z,51.34
